createdAt,value
2019-01-24T00:00:33.662Z,97.47
2019-01-24T00:03:02.238Z,124.43
2019-01-24T00:05:30.828Z,141.17
2019-01-24T00:07:59.895Z,132.50
2019-01-24T00:10:28.466Z,132.67
2019-01-24T00:12:56.994Z,110.67
2019-01-24T00:15:25.489Z,104.63
2019-01-24T00:17:54.093Z,126.47
2019-01-24T00:20:22.762Z,119.93
2019-01-24T00:22:51.331Z,73.27
2019-01-24T00:25:19.974Z,92.70
2019-01-24T00:27:48.513Z,81.43
2019-01-24T00:30:17.274Z,95.53
2019-01-24T00:32:46.202Z,86.07
2019-01-24T00:35:14.816Z,101.30
2019-01-24T00:37:43.480Z,125.87
2019-01-24T00:40:19.753Z,125.13
2019-01-24T00:42:48.358Z,121.47
2019-01-24T00:45:16.858Z,88.73
2019-01-24T00:47:45.525Z,77.57
2019-01-24T00:50:15.468Z,92.37
2019-01-24T00:52:44.140Z,104.53
2019-01-24T00:55:16.129Z,72.80
2019-01-24T00:57:44.729Z,73.60
2019-01-24T01:00:16.466Z,77.20
2019-01-24T01:02:45.127Z,67.00
2019-01-24T01:05:14.078Z,80.83
2019-01-24T01:07:42.569Z,70.40
2019-01-24T01:10:11.879Z,73.20
2019-01-24T01:12:40.447Z,90.17
2019-01-24T01:15:16.786Z,90.90
2019-01-24T01:17:45.624Z,84.57
2019-01-24T01:20:19.308Z,68.70
2019-01-24T01:22:47.924Z,56.33
2019-01-24T01:25:16.536Z,63.60
2019-01-24T01:27:45.369Z,65.23
2019-01-24T01:30:19.812Z,87.03
2019-01-24T01:32:48.376Z,75.87
2019-01-24T01:35:17.527Z,72.57
2019-01-24T01:37:46.096Z,74.73
2019-01-24T01:40:17.336Z,64.57
2019-01-24T01:42:45.895Z,58.40
2019-01-24T01:45:18.826Z,69.97
2019-01-24T01:47:47.395Z,80.80
2019-01-24T01:50:20.200Z,68.07
2019-01-24T01:52:48.721Z,66.10
2019-01-24T01:55:17.660Z,71.20
2019-01-24T01:57:46.152Z,74.90
2019-01-24T02:00:22.779Z,83.07
2019-01-24T02:02:51.721Z,53.20
2019-01-24T02:05:20.275Z,77.53
2019-01-24T02:07:48.887Z,78.23
2019-01-24T02:10:19.520Z,69.37
2019-01-24T02:12:48.017Z,98.40
2019-01-24T02:15:17.501Z,80.13
2019-01-24T02:17:46.141Z,93.87
2019-01-24T02:20:17.087Z,107.13
2019-01-24T02:22:45.618Z,103.23
2019-01-24T02:25:14.197Z,108.60
2019-01-24T02:27:42.701Z,115.80
2019-01-24T02:30:17.384Z,101.40
2019-01-24T02:32:45.886Z,110.13
2019-01-24T02:35:14.453Z,114.83
2019-01-24T02:37:42.993Z,121.20
2019-01-24T02:40:11.859Z,112.30
2019-01-24T02:42:40.388Z,75.33
2019-01-24T02:45:14.568Z,71.43
2019-01-24T02:47:43.144Z,69.13
2019-01-24T02:50:14.623Z,81.13
2019-01-24T02:52:43.252Z,75.50
2019-01-24T02:55:13.821Z,79.10
2019-01-24T02:57:42.316Z,63.13
2019-01-24T03:00:19.190Z,61.97
2019-01-24T03:02:47.689Z,67.10
2019-01-24T03:05:37.192Z,61.90
2019-01-24T03:08:05.691Z,83.17
2019-01-24T03:10:34.191Z,66.67
2019-01-24T03:13:02.814Z,70.27
2019-01-24T03:15:31.306Z,83.83
2019-01-24T03:17:59.806Z,70.03
2019-01-24T03:20:28.409Z,70.70
2019-01-24T03:22:56.982Z,72.27
2019-01-24T03:25:25.563Z,66.73
2019-01-24T03:27:54.093Z,82.10
2019-01-24T03:30:22.674Z,73.30
2019-01-24T03:32:51.291Z,61.47
2019-01-24T03:35:22.441Z,77.20
2019-01-24T03:37:50.925Z,69.53
2019-01-24T03:40:19.827Z,55.37
2019-01-24T03:42:48.377Z,123.57
2019-01-24T03:45:17.640Z,185.73
2019-01-24T03:47:46.206Z,185.90
2019-01-24T03:50:16.631Z,115.13
2019-01-24T03:52:45.266Z,86.13
2019-01-24T03:55:15.440Z,72.47
2019-01-24T03:57:43.968Z,84.83
2019-01-24T04:00:15.295Z,72.27
2019-01-24T04:02:43.820Z,68.77
2019-01-24T04:05:12.826Z,63.83
2019-01-24T04:07:41.401Z,73.03
2019-01-24T04:10:13.138Z,64.63
2019-01-24T04:12:41.726Z,67.97
2019-01-24T04:15:13.067Z,76.67
2019-01-24T04:17:41.559Z,72.87
2019-01-24T04:20:11.748Z,55.37
2019-01-24T04:22:40.240Z,57.20
2019-01-24T04:25:08.913Z,55.00
2019-01-24T04:27:37.512Z,69.13
2019-01-24T04:30:09.313Z,58.00
2019-01-24T04:32:37.873Z,71.97
2019-01-24T04:35:08.680Z,59.87
2019-01-24T04:37:37.211Z,69.20
2019-01-24T04:40:11.222Z,61.50
2019-01-24T04:42:39.859Z,71.87
2019-01-24T04:45:10.953Z,66.70
2019-01-24T04:47:39.515Z,74.30
2019-01-24T04:50:10.827Z,66.47
2019-01-24T04:52:39.400Z,63.00
2019-01-24T04:55:10.464Z,53.80
2019-01-24T04:57:39.065Z,73.03
2019-01-24T05:00:10.824Z,61.03
2019-01-24T05:02:39.461Z,60.27
2019-01-24T05:05:08.066Z,61.87
2019-01-24T05:07:36.744Z,49.90
2019-01-24T05:10:07.102Z,60.50
2019-01-24T05:12:35.778Z,51.43
2019-01-24T05:15:05.318Z,51.30
2019-01-24T05:17:33.896Z,58.60
2019-01-24T05:20:02.581Z,61.50
2019-01-24T05:22:31.065Z,39.43
2019-01-24T05:24:59.719Z,46.63
2019-01-24T05:27:28.250Z,52.17
2019-01-24T05:29:56.748Z,46.07
2019-01-24T05:32:25.244Z,45.00
2019-01-24T05:34:53.817Z,47.43
2019-01-24T05:37:22.270Z,49.47
2019-01-24T05:39:50.835Z,49.93
2019-01-24T05:42:19.458Z,51.87
2019-01-24T05:44:48.030Z,39.23
2019-01-24T05:47:16.602Z,49.80
2019-01-24T05:49:45.237Z,38.90
2019-01-24T05:52:19.464Z,49.77
2019-01-24T05:54:44.003Z,43.67
2019-01-24T05:57:12.614Z,46.53
2019-01-24T05:59:41.333Z,46.37
2019-01-24T06:02:09.965Z,51.60
2019-01-24T06:04:38.508Z,62.70
2019-01-24T06:07:07.076Z,54.07
2019-01-24T06:09:35.642Z,42.10
2019-01-24T06:12:04.178Z,52.57
2019-01-24T06:14:32.756Z,46.57
2019-01-24T06:17:01.394Z,32.80
2019-01-24T06:19:29.930Z,40.40
2019-01-24T06:21:58.501Z,42.13
2019-01-24T06:24:27.061Z,49.70
2019-01-24T06:26:55.664Z,46.87
2019-01-24T06:29:24.231Z,39.10
2019-01-24T06:31:52.734Z,39.23
2019-01-24T06:34:21.416Z,39.63
2019-01-24T06:36:49.977Z,44.37
2019-01-24T06:39:18.538Z,41.73
2019-01-24T06:41:47.182Z,34.07
2019-01-24T06:44:15.812Z,41.33
2019-01-24T06:46:44.387Z,48.23
2019-01-24T06:49:12.967Z,60.50
2019-01-24T06:51:41.604Z,56.20
2019-01-24T06:54:10.813Z,52.13
2019-01-24T06:56:39.502Z,54.57
2019-01-24T06:59:08.031Z,47.30
2019-01-24T07:01:36.594Z,48.60
2019-01-24T07:04:05.202Z,57.13
2019-01-24T07:06:33.928Z,60.73
2019-01-24T07:09:05.547Z,50.73
2019-01-24T07:11:34.102Z,58.57
2019-01-24T07:14:03.019Z,58.03
2019-01-24T07:16:31.591Z,51.83
2019-01-24T07:19:00.141Z,54.17
2019-01-24T07:21:28.622Z,43.20
2019-01-24T07:23:57.188Z,65.20
2019-01-24T07:26:25.727Z,55.17
2019-01-24T07:28:54.365Z,60.50
2019-01-24T07:31:22.935Z,74.73
2019-01-24T07:33:51.463Z,68.20
2019-01-24T07:36:20.079Z,58.53
2019-01-24T07:38:48.658Z,70.57
2019-01-24T07:41:17.179Z,85.03
2019-01-24T07:43:45.939Z,56.03
2019-01-24T07:46:14.492Z,49.77
2019-01-24T07:48:43.042Z,47.20
2019-01-24T07:51:11.543Z,50.47
2019-01-24T07:53:40.107Z,41.37
2019-01-24T07:56:08.748Z,38.47
2019-01-24T07:58:37.387Z,47.17
2019-01-24T08:01:05.899Z,53.17
2019-01-24T08:03:34.499Z,45.20
2019-01-24T08:06:08.837Z,40.87
2019-01-24T08:08:33.153Z,52.57
2019-01-24T08:11:01.829Z,38.33
2019-01-24T08:13:30.378Z,54.43
2019-01-24T08:15:58.942Z,47.80
2019-01-24T08:18:27.476Z,94.83
2019-01-24T08:20:56.072Z,54.60
2019-01-24T08:23:24.626Z,52.90
2019-01-24T08:25:53.611Z,49.83
2019-01-24T08:28:22.652Z,56.10
2019-01-24T08:30:51.222Z,47.87
2019-01-24T08:33:19.748Z,70.13
2019-01-24T08:35:48.249Z,54.83
2019-01-24T08:38:16.742Z,34.33
2019-01-24T08:40:45.417Z,58.40
2019-01-24T08:43:13.983Z,42.03
2019-01-24T08:45:42.590Z,44.50
2019-01-24T08:48:11.197Z,45.83
2019-01-24T08:50:39.770Z,54.60
2019-01-24T08:53:08.270Z,57.03
2019-01-24T08:55:38.276Z,41.97
2019-01-24T08:58:06.882Z,45.63
2019-01-24T09:00:35.479Z,51.90
2019-01-24T09:03:04.101Z,56.93
2019-01-24T09:05:32.603Z,51.97
2019-01-24T09:08:01.170Z,50.73
2019-01-24T09:10:32.522Z,43.30
2019-01-24T09:13:02.338Z,49.63
2019-01-24T09:15:30.898Z,42.97
2019-01-24T09:17:59.521Z,44.63
2019-01-24T09:20:28.150Z,35.27
2019-01-24T09:22:56.726Z,51.13
2019-01-24T09:25:25.354Z,50.20
2019-01-24T09:27:53.923Z,45.17
2019-01-24T09:30:27.963Z,41.87
2019-01-24T09:32:56.591Z,50.00
2019-01-24T09:35:25.227Z,53.23
2019-01-24T09:37:53.790Z,51.33
2019-01-24T09:40:23.156Z,41.33
2019-01-24T09:42:51.729Z,45.87
2019-01-24T09:45:28.276Z,44.77
2019-01-24T09:47:58.138Z,44.77
2019-01-24T09:50:27.578Z,50.37
2019-01-24T09:52:56.172Z,39.73
2019-01-24T09:55:24.746Z,49.20
2019-01-24T09:57:53.303Z,50.90
2019-01-24T10:00:24.081Z,44.57
2019-01-24T10:02:52.575Z,46.27
2019-01-24T10:05:21.214Z,52.70
2019-01-24T10:07:49.806Z,42.53
2019-01-24T10:10:20.353Z,49.80
2019-01-24T10:12:49.039Z,48.97
2019-01-24T10:15:19.219Z,47.43
2019-01-24T10:17:47.781Z,44.97
2019-01-24T10:20:18.295Z,43.63
2019-01-24T10:22:46.934Z,53.37
2019-01-24T10:25:18.463Z,37.37
2019-01-24T10:27:47.066Z,51.17
2019-01-24T10:30:18.766Z,61.30
2019-01-24T10:32:47.393Z,40.93
2019-01-24T10:35:18.797Z,40.53
2019-01-24T10:37:47.443Z,40.03
2019-01-24T10:40:18.812Z,36.50
2019-01-24T10:42:47.445Z,35.80
2019-01-24T10:45:18.652Z,50.00
2019-01-24T10:47:47.290Z,34.80
2019-01-24T10:50:17.795Z,41.70
2019-01-24T10:52:46.301Z,45.20
2019-01-24T10:55:17.059Z,39.63
2019-01-24T10:57:45.732Z,38.53
2019-01-24T11:00:17.339Z,50.50
2019-01-24T11:02:45.966Z,38.73
2019-01-24T11:05:16.789Z,33.10
2019-01-24T11:07:45.349Z,42.10
2019-01-24T11:10:15.879Z,35.80
2019-01-24T11:12:44.573Z,48.13
2019-01-24T11:15:15.613Z,32.07
2019-01-24T11:17:56.477Z,43.13
2019-01-24T11:20:25.045Z,42.57
2019-01-24T11:22:53.613Z,55.17
2019-01-24T11:25:26.791Z,54.23
2019-01-24T11:27:55.351Z,43.67
2019-01-24T11:30:25.787Z,49.60
2019-01-24T11:32:55.839Z,46.97
2019-01-24T11:35:26.924Z,55.40
2019-01-24T11:37:55.551Z,48.13
2019-01-24T11:40:24.093Z,54.37
2019-01-24T11:42:52.647Z,48.47
2019-01-24T11:45:27.342Z,59.93
2019-01-24T11:47:55.960Z,53.43
2019-01-24T11:50:24.533Z,34.73
2019-01-24T11:52:53.536Z,40.70
2019-01-24T11:55:22.271Z,41.40
2019-01-24T11:57:51.330Z,46.83
2019-01-24T12:00:35.905Z,46.37
2019-01-24T12:03:05.529Z,34.63
2019-01-24T12:05:34.172Z,39.30
2019-01-24T12:08:02.756Z,36.97
2019-01-24T12:10:31.389Z,35.10
2019-01-24T12:12:59.874Z,43.73
2019-01-24T12:15:29.881Z,46.03
2019-01-24T12:17:58.523Z,44.10
2019-01-24T12:20:27.088Z,40.50
2019-01-24T12:22:55.628Z,36.13
2019-01-24T12:25:24.266Z,45.47
2019-01-24T12:27:52.829Z,46.70
2019-01-24T12:30:24.543Z,55.33
2019-01-24T12:32:53.289Z,39.63
2019-01-24T12:35:21.853Z,42.40
2019-01-24T12:37:50.463Z,41.87
2019-01-24T12:40:18.953Z,51.43
2019-01-24T12:42:47.589Z,48.80
2019-01-24T12:45:25.232Z,44.20
2019-01-24T12:47:53.793Z,42.10
2019-01-24T12:50:22.440Z,45.40
2019-01-24T12:52:51.047Z,43.67
2019-01-24T12:55:19.612Z,41.60
2019-01-24T12:57:48.257Z,43.50
2019-01-24T13:00:22.238Z,39.30
2019-01-24T13:02:50.815Z,39.43
2019-01-24T13:05:19.382Z,44.97
2019-01-24T13:07:47.929Z,44.30
2019-01-24T13:10:25.260Z,43.63
2019-01-24T13:12:53.962Z,45.13
2019-01-24T13:15:24.634Z,42.07
2019-01-24T13:17:53.209Z,40.63
2019-01-24T13:20:22.764Z,46.80
2019-01-24T13:22:51.389Z,35.40
2019-01-24T13:25:30.794Z,36.83
2019-01-24T13:27:59.360Z,34.67
2019-01-24T13:30:34.502Z,45.20
2019-01-24T13:33:03.330Z,42.20
2019-01-24T13:35:32.008Z,44.63
2019-01-24T13:38:00.674Z,33.37
2019-01-24T13:40:31.104Z,36.80
2019-01-24T13:43:00.339Z,65.70
2019-01-24T13:45:34.145Z,67.00
2019-01-24T13:48:02.717Z,40.27
2019-01-24T13:50:31.301Z,41.10
2019-01-24T13:52:59.998Z,41.57
2019-01-24T13:55:28.722Z,43.87
2019-01-24T13:57:57.304Z,37.17
2019-01-24T14:00:29.114Z,40.53
2019-01-24T14:03:00.891Z,31.17
2019-01-24T14:05:29.461Z,34.33
2019-01-24T14:07:58.058Z,46.77
2019-01-24T14:10:26.694Z,38.40
2019-01-24T14:12:55.665Z,33.17
2019-01-24T14:15:24.303Z,34.57
2019-01-24T14:17:52.879Z,37.57
2019-01-24T14:20:24.336Z,37.27
2019-01-24T14:22:53.031Z,33.63
2019-01-24T14:25:22.081Z,31.57
2019-01-24T14:27:50.779Z,40.37
2019-01-24T14:30:24.793Z,31.37
2019-01-24T14:32:53.359Z,37.80
2019-01-24T14:35:22.069Z,40.83
2019-01-24T14:37:50.701Z,35.20
2019-01-24T14:40:22.324Z,38.60
2019-01-24T14:42:50.876Z,44.07
2019-01-24T14:45:24.254Z,37.00
2019-01-24T14:47:52.823Z,33.33
2019-01-24T14:50:23.229Z,42.47
2019-01-24T14:52:51.789Z,43.90
2019-01-24T14:55:20.352Z,51.10
2019-01-24T14:57:48.966Z,46.43
2019-01-24T15:00:23.488Z,39.90
2019-01-24T15:02:52.185Z,36.60
2019-01-24T15:05:21.166Z,41.77
2019-01-24T15:07:49.789Z,39.77
2019-01-24T15:10:19.420Z,44.80
2019-01-24T15:12:48.043Z,39.37
2019-01-24T15:15:18.132Z,40.93
2019-01-24T15:17:46.758Z,40.50
2019-01-24T15:20:17.902Z,41.17
2019-01-24T15:22:46.562Z,35.23
2019-01-24T15:25:23.287Z,35.97
2019-01-24T15:27:51.867Z,36.03
2019-01-24T15:30:25.100Z,38.20
2019-01-24T15:32:53.704Z,43.57
2019-01-24T15:35:22.283Z,43.50
2019-01-24T15:37:54.776Z,37.03
2019-01-24T15:40:29.134Z,37.67
2019-01-24T15:42:57.706Z,33.60
2019-01-24T15:45:26.339Z,38.67
2019-01-24T15:47:55.017Z,36.33
2019-01-24T15:50:24.059Z,41.00
2019-01-24T15:52:52.637Z,39.40
2019-01-24T15:55:21.255Z,37.33
2019-01-24T15:57:49.814Z,32.87
2019-01-24T16:00:23.734Z,42.27
2019-01-24T16:02:52.356Z,34.20
2019-01-24T16:05:20.858Z,33.77
2019-01-24T16:07:49.507Z,31.97
2019-01-24T16:10:22.906Z,34.00
2019-01-24T16:12:51.466Z,28.93
2019-01-24T16:15:22.795Z,33.40
2019-01-24T16:17:51.398Z,51.40
2019-01-24T16:20:22.069Z,36.37
2019-01-24T16:22:51.645Z,36.77
2019-01-24T16:25:22.560Z,47.10
2019-01-24T16:27:51.128Z,42.60
2019-01-24T16:30:22.287Z,49.93
2019-01-24T16:32:50.809Z,58.27
2019-01-24T16:35:20.385Z,54.37
2019-01-24T16:37:48.880Z,57.13
2019-01-24T16:40:22.508Z,51.03
2019-01-24T16:42:51.019Z,58.50
2019-01-24T16:45:21.498Z,45.03
2019-01-24T16:47:50.111Z,44.30
2019-01-24T16:50:21.259Z,44.50
2019-01-24T16:52:49.828Z,44.33
2019-01-24T16:55:18.936Z,39.77
2019-01-24T16:57:48.707Z,49.27
2019-01-24T17:00:22.883Z,44.53
2019-01-24T17:02:51.379Z,50.77
2019-01-24T17:05:20.011Z,41.10
2019-01-24T17:07:48.704Z,42.60
2019-01-24T17:10:22.130Z,42.27
2019-01-24T17:12:50.761Z,36.27
2019-01-24T17:15:19.666Z,35.40
2019-01-24T17:17:48.303Z,38.27
2019-01-24T17:20:25.359Z,38.03
2019-01-24T17:22:54.845Z,37.53
2019-01-24T17:25:24.936Z,31.83
2019-01-24T17:27:55.285Z,34.33
2019-01-24T17:30:28.622Z,38.77
2019-01-24T17:32:57.593Z,32.60
2019-01-24T17:35:27.560Z,36.07
2019-01-24T17:37:56.279Z,36.03
2019-01-24T17:40:27.102Z,44.77
2019-01-24T17:42:57.474Z,41.93
2019-01-24T17:45:26.115Z,45.40
2019-01-24T17:47:54.874Z,46.23
2019-01-24T17:50:23.477Z,43.60
2019-01-24T17:52:52.122Z,38.93
2019-01-24T17:55:29.205Z,49.40
2019-01-24T17:57:57.838Z,44.53
2019-01-24T18:00:28.057Z,53.77
2019-01-24T18:02:56.742Z,46.00
2019-01-24T18:05:25.388Z,45.77
2019-01-24T18:07:54.080Z,40.90
2019-01-24T18:10:25.272Z,53.03
2019-01-24T18:12:53.921Z,55.97
2019-01-24T18:15:30.388Z,51.97
2019-01-24T18:17:59.033Z,39.83
2019-01-24T18:20:30.250Z,40.90
2019-01-24T18:22:58.845Z,41.13
2019-01-24T18:25:27.531Z,39.80
2019-01-24T18:27:56.072Z,51.60
2019-01-24T18:30:28.975Z,45.83
2019-01-24T18:32:57.632Z,50.90
2019-01-24T18:35:26.443Z,44.97
2019-01-24T18:37:55.571Z,40.60
2019-01-24T18:40:26.408Z,45.00
2019-01-24T18:42:55.484Z,54.13
2019-01-24T18:45:32.717Z,50.77
2019-01-24T18:48:01.361Z,46.93
2019-01-24T18:50:30.102Z,56.27
2019-01-24T18:52:58.709Z,56.97
2019-01-24T18:55:27.372Z,62.40
2019-01-24T18:57:56.050Z,72.93
2019-01-24T19:00:27.298Z,68.67
2019-01-24T19:02:56.064Z,89.03
2019-01-24T19:05:25.371Z,50.50
2019-01-24T19:07:54.034Z,49.57
2019-01-24T19:10:22.737Z,51.57
2019-01-24T19:12:51.374Z,48.00
2019-01-24T19:15:21.988Z,38.20
2019-01-24T19:17:50.683Z,46.70
2019-01-24T19:20:20.318Z,42.20
2019-01-24T19:22:49.143Z,28.27
2019-01-24T19:25:19.823Z,41.43
2019-01-24T19:27:48.458Z,39.77
2019-01-24T19:30:22.711Z,40.00
2019-01-24T19:32:51.366Z,48.77
2019-01-24T19:35:19.913Z,38.17
2019-01-24T19:37:48.602Z,33.03
2019-01-24T19:40:26.202Z,37.67
2019-01-24T19:42:54.887Z,50.53
2019-01-24T19:45:25.241Z,40.50
2019-01-24T19:47:53.825Z,37.80
2019-01-24T19:50:30.117Z,48.27
2019-01-24T19:52:58.983Z,49.67
2019-01-24T19:55:28.059Z,42.10
2019-01-24T19:57:57.269Z,40.50
2019-01-24T20:00:29.614Z,47.33
2019-01-24T20:02:58.214Z,51.53
2019-01-24T20:05:27.380Z,60.60
2019-01-24T20:07:56.013Z,51.03
2019-01-24T20:10:29.293Z,44.73
2019-01-24T20:12:58.287Z,49.40
2019-01-24T20:15:29.187Z,47.83
2019-01-24T20:17:57.692Z,52.40
2019-01-24T20:20:26.383Z,50.23
2019-01-24T20:22:55.010Z,49.23
2019-01-24T20:25:28.258Z,47.87
2019-01-24T20:27:56.938Z,42.90
2019-01-24T20:30:32.480Z,38.87
2019-01-24T20:33:01.768Z,36.70
2019-01-24T20:35:45.450Z,35.23
2019-01-24T20:38:14.129Z,47.67
2019-01-24T20:40:42.804Z,47.20
2019-01-24T20:43:13.279Z,48.83
2019-01-24T20:45:43.462Z,47.80
2019-01-24T20:48:12.101Z,46.07
2019-01-24T20:50:41.226Z,36.63
2019-01-24T20:53:09.831Z,58.57
2019-01-24T20:55:38.398Z,52.23
2019-01-24T20:58:07.065Z,60.67
2019-01-24T21:00:35.672Z,55.40
2019-01-24T21:03:04.339Z,55.77
2019-01-24T21:05:32.821Z,51.17
2019-01-24T21:08:01.399Z,51.23
2019-01-24T21:10:30.571Z,48.50
2019-01-24T21:12:59.246Z,55.17
2019-01-24T21:15:28.173Z,62.13
2019-01-24T21:17:56.814Z,53.33
2019-01-24T21:20:31.094Z,57.23
2019-01-24T21:22:59.809Z,65.23
2019-01-24T21:25:28.385Z,32.57
2019-01-24T21:27:57.027Z,59.13
2019-01-24T21:30:31.128Z,68.50
2019-01-24T21:32:59.664Z,75.23
2019-01-24T21:35:28.298Z,81.27
2019-01-24T21:37:56.990Z,190.77
2019-01-24T21:40:25.630Z,177.00
2019-01-24T21:42:54.278Z,190.27
2019-01-24T21:45:31.850Z,182.30
2019-01-24T21:48:00.185Z,193.07
2019-01-24T21:50:31.236Z,193.70
2019-01-24T21:52:59.908Z,199.03
2019-01-24T21:55:28.502Z,189.73
2019-01-24T21:57:57.148Z,192.50
2019-01-24T22:00:27.895Z,197.50
2019-01-24T22:02:56.547Z,185.63
2019-01-24T22:05:25.249Z,187.03
2019-01-24T22:07:53.987Z,172.20
2019-01-24T22:10:28.443Z,179.93
2019-01-24T22:12:57.061Z,91.17
2019-01-24T22:15:28.158Z,99.10
2019-01-24T22:17:56.792Z,80.63
2019-01-24T22:20:25.968Z,75.57
2019-01-24T22:22:54.539Z,73.53
2019-01-24T22:25:31.606Z,73.63
2019-01-24T22:28:00.236Z,81.73
2019-01-24T22:30:39.962Z,90.33
2019-01-24T22:33:08.643Z,67.70
2019-01-24T22:35:37.289Z,80.70
2019-01-24T22:38:06.784Z,74.50
2019-01-24T22:40:35.433Z,67.73
2019-01-24T22:43:04.374Z,68.37
2019-01-24T22:45:33.044Z,43.63
2019-01-24T22:48:01.612Z,71.53
2019-01-24T22:50:30.239Z,70.87
2019-01-24T22:52:59.314Z,63.87
2019-01-24T22:55:27.941Z,72.47
2019-01-24T22:57:56.579Z,64.53
2019-01-24T23:00:49.312Z,61.27
2019-01-24T23:03:21.166Z,78.27
2019-01-24T23:05:49.652Z,59.83
2019-01-24T23:08:18.333Z,66.43
2019-01-24T23:10:46.836Z,70.07
2019-01-24T23:13:15.467Z,69.53
2019-01-24T23:15:44.011Z,82.53
2019-01-24T23:18:12.569Z,74.33
2019-01-24T23:20:41.132Z,68.57
2019-01-24T23:23:09.741Z,77.00
2019-01-24T23:25:38.249Z,57.63
2019-01-24T23:28:07.242Z,74.97
2019-01-24T23:30:36.732Z,80.67
2019-01-24T23:33:05.232Z,69.73
2019-01-24T23:35:33.793Z,75.50
2019-01-24T23:38:02.418Z,77.10
2019-01-24T23:40:30.912Z,76.60
2019-01-24T23:42:59.918Z,62.97
2019-01-24T23:45:28.662Z,83.20
2019-01-24T23:47:57.147Z,89.07
2019-01-24T23:50:25.713Z,64.90
2019-01-24T23:52:54.328Z,68.73
2019-01-24T23:55:22.883Z,63.43
2019-01-24T23:57:51.449Z,56.63
